sensor_id;sensor_type;location;lat;lon;timestamp;pressure;altitude;pressure_sealevel;temperature;humidity
62789;BME280;66401;42.016;21.454;2023-05-22T00:00:51;97891.47;;;16.02;80.68
62789;BME280;66401;42.016;21.454;2023-05-22T00:03:19;97895.94;;;16.02;81.15
62789;BME280;66401;42.016;21.454;2023-05-22T00:05:44;97881.03;;;16.08;80.36
62789;BME280;66401;42.016;21.454;2023-05-22T00:08:10;97871.72;;;16.00;79.83
62789;BME280;66401;42.016;21.454;2023-05-22T00:10:39;97875.47;;;16.04;80.19
62789;BME280;66401;42.016;21.454;2023-05-22T00:13:04;97882.63;;;16.09;80.33
62789;BME280;66401;42.016;21.454;2023-05-22T00:15:30;97873.41;;;16.06;79.75
62789;BME280;66401;42.016;21.454;2023-05-22T00:17:56;97877.34;;;15.92;80.57
62789;BME280;66401;42.016;21.454;2023-05-22T00:20:21;97877.56;;;15.90;80.47
62789;BME280;66401;42.016;21.454;2023-05-22T00:22:47;97874.94;;;14.98;84.77
62789;BME280;66401;42.016;21.454;2023-05-22T00:25:14;97881.84;;;15.28;82.87
62789;BME280;66401;42.016;21.454;2023-05-22T00:27:42;97873.03;;;15.45;82.02
62789;BME280;66401;42.016;21.454;2023-05-22T00:30:07;97859.63;;;15.18;83.45
62789;BME280;66401;42.016;21.454;2023-05-22T00:32:33;97866.91;;;15.05;83.98
62789;BME280;66401;42.016;21.454;2023-05-22T00:34:58;97870.00;;;15.13;83.75
62789;BME280;66401;42.016;21.454;2023-05-22T00:37:24;97864.03;;;15.30;83.20
62789;BME280;66401;42.016;21.454;2023-05-22T00:39:49;97871.16;;;15.17;84.41
62789;BME280;66401;42.016;21.454;2023-05-22T00:42:16;97870.69;;;15.21;83.36
62789;BME280;66401;42.016;21.454;2023-05-22T00:44:42;97867.97;;;15.04;83.25
62789;BME280;66401;42.016;21.454;2023-05-22T00:47:07;97871.28;;;14.99;84.73
62789;BME280;66401;42.016;21.454;2023-05-22T00:49:33;97866.22;;;15.21;83.58
62789;BME280;66401;42.016;21.454;2023-05-22T00:51:59;97876.47;;;15.23;81.97
62789;BME280;66401;42.016;21.454;2023-05-22T00:54:25;97850.38;;;15.28;80.37
62789;BME280;66401;42.016;21.454;2023-05-22T00:56:51;97862.66;;;15.39;79.18
62789;BME280;66401;42.016;21.454;2023-05-22T00:59:17;97872.28;;;15.22;80.13
62789;BME280;66401;42.016;21.454;2023-05-22T01:01:43;97868.88;;;15.09;81.53
62789;BME280;66401;42.016;21.454;2023-05-22T01:04:11;97856.56;;;15.10;80.82
62789;BME280;66401;42.016;21.454;2023-05-22T01:06:37;97876.72;;;15.21;80.06
62789;BME280;66401;42.016;21.454;2023-05-22T01:09:03;97872.63;;;15.25;80.15
62789;BME280;66401;42.016;21.454;2023-05-22T01:11:54;97877.53;;;15.22;80.46
62789;BME280;66401;42.016;21.454;2023-05-22T01:14:33;97869.09;;;15.20;79.67
62789;BME280;66401;42.016;21.454;2023-05-22T01:17:06;97870.00;;;15.02;81.08
62789;BME280;66401;42.016;21.454;2023-05-22T01:19:51;97861.13;;;14.91;81.69
62789;BME280;66401;42.016;21.454;2023-05-22T01:23:03;97866.59;;;15.01;80.58
62789;BME280;66401;42.016;21.454;2023-05-22T01:30:49;97855.75;;;15.09;79.91
62789;BME280;66401;42.016;21.454;2023-05-22T01:33:15;97854.03;;;15.03;80.58
62789;BME280;66401;42.016;21.454;2023-05-22T01:35:47;97859.75;;;15.00;81.79
62789;BME280;66401;42.016;21.454;2023-05-22T01:38:14;97837.41;;;14.86;81.28
62789;BME280;66401;42.016;21.454;2023-05-22T01:40:41;97860.00;;;14.64;83.07
62789;BME280;66401;42.016;21.454;2023-05-22T01:43:07;97860.75;;;14.41;84.44
62789;BME280;66401;42.016;21.454;2023-05-22T01:45:33;97864.47;;;14.33;84.73
62789;BME280;66401;42.016;21.454;2023-05-22T01:47:59;97861.06;;;14.21;84.76
62789;BME280;66401;42.016;21.454;2023-05-22T01:50:24;97863.69;;;14.44;84.19
62789;BME280;66401;42.016;21.454;2023-05-22T01:56:02;97849.97;;;14.60;82.75
62789;BME280;66401;42.016;21.454;2023-05-22T02:00:59;97858.34;;;14.39;84.44
62789;BME280;66401;42.016;21.454;2023-05-22T02:03:29;97844.00;;;14.30;84.42
62789;BME280;66401;42.016;21.454;2023-05-22T02:05:58;97854.72;;;14.40;85.53
62789;BME280;66401;42.016;21.454;2023-05-22T02:08:25;97851.31;;;14.51;84.65
62789;BME280;66401;42.016;21.454;2023-05-22T02:10:54;97855.34;;;14.77;82.59
62789;BME280;66401;42.016;21.454;2023-05-22T02:13:20;97859.31;;;14.80;83.39
62789;BME280;66401;42.016;21.454;2023-05-22T02:15:46;97857.81;;;14.49;84.37
62789;BME280;66401;42.016;21.454;2023-05-22T02:18:12;97856.56;;;14.51;85.24
62789;BME280;66401;42.016;21.454;2023-05-22T02:20:38;97856.00;;;14.61;84.24
62789;BME280;66401;42.016;21.454;2023-05-22T02:23:04;97863.63;;;14.63;83.55
62789;BME280;66401;42.016;21.454;2023-05-22T02:25:29;97857.25;;;14.58;84.57
62789;BME280;66401;42.016;21.454;2023-05-22T02:27:55;97857.97;;;14.77;83.16
62789;BME280;66401;42.016;21.454;2023-05-22T02:30:21;97851.09;;;14.88;81.77
62789;BME280;66401;42.016;21.454;2023-05-22T02:32:46;97855.88;;;14.91;81.22
62789;BME280;66401;42.016;21.454;2023-05-22T02:35:12;97858.97;;;15.00;80.81
62789;BME280;66401;42.016;21.454;2023-05-22T02:37:37;97848.16;;;14.96;81.14
62789;BME280;66401;42.016;21.454;2023-05-22T02:40:04;97859.53;;;14.90;81.76
62789;BME280;66401;42.016;21.454;2023-05-22T02:42:32;97869.78;;;14.92;81.99
62789;BME280;66401;42.016;21.454;2023-05-22T02:44:58;97853.25;;;14.91;80.27
62789;BME280;66401;42.016;21.454;2023-05-22T02:47:23;97865.00;;;15.00;80.48
62789;BME280;66401;42.016;21.454;2023-05-22T02:49:48;97852.81;;;14.82;80.70
62789;BME280;66401;42.016;21.454;2023-05-22T02:52:14;97856.91;;;14.90;79.94
62789;BME280;66401;42.016;21.454;2023-05-22T02:54:39;97852.13;;;14.87;80.31
62789;BME280;66401;42.016;21.454;2023-05-22T02:57:05;97855.75;;;14.86;79.90
62789;BME280;66401;42.016;21.454;2023-05-22T02:59:30;97869.56;;;14.93;80.51
62789;BME280;66401;42.016;21.454;2023-05-22T03:01:56;97868.66;;;14.76;81.63
62789;BME280;66401;42.016;21.454;2023-05-22T03:04:22;97874.03;;;14.81;82.05
62789;BME280;66401;42.016;21.454;2023-05-22T03:06:48;97870.94;;;14.60;82.99
62789;BME280;66401;42.016;21.454;2023-05-22T03:09:14;97874.91;;;14.51;82.82
62789;BME280;66401;42.016;21.454;2023-05-22T03:11:40;97867.25;;;14.38;84.27
62789;BME280;66401;42.016;21.454;2023-05-22T03:14:06;97834.56;;;14.52;82.07
62789;BME280;66401;42.016;21.454;2023-05-22T03:16:31;97850.66;;;14.68;81.25
62789;BME280;66401;42.016;21.454;2023-05-22T03:19:09;97874.22;;;14.56;83.56
62789;BME280;66401;42.016;21.454;2023-05-22T03:21:35;97861.97;;;14.26;84.46
62789;BME280;66401;42.016;21.454;2023-05-22T03:24:02;97878.34;;;14.22;84.87
62789;BME280;66401;42.016;21.454;2023-05-22T03:26:28;97877.91;;;14.25;84.84
62789;BME280;66401;42.016;21.454;2023-05-22T03:28:54;97875.28;;;14.25;84.59
62789;BME280;66401;42.016;21.454;2023-05-22T03:31:20;97881.53;;;14.24;85.40
62789;BME280;66401;42.016;21.454;2023-05-22T03:33:47;97883.59;;;14.22;85.52
62789;BME280;66401;42.016;21.454;2023-05-22T03:36:12;97885.91;;;14.42;83.81
62789;BME280;66401;42.016;21.454;2023-05-22T03:38:38;97872.41;;;14.56;82.41
62789;BME280;66401;42.016;21.454;2023-05-22T03:41:03;97874.91;;;14.63;81.28
62789;BME280;66401;42.016;21.454;2023-05-22T03:43:29;97875.16;;;14.62;81.65
62789;BME280;66401;42.016;21.454;2023-05-22T03:45:54;97872.81;;;14.42;81.87
62789;BME280;66401;42.016;21.454;2023-05-22T03:48:20;97884.59;;;14.63;82.13
62789;BME280;66401;42.016;21.454;2023-05-22T03:50:45;97894.06;;;14.64;81.67
62789;BME280;66401;42.016;21.454;2023-05-22T03:53:11;97890.31;;;14.83;79.95
62789;BME280;66401;42.016;21.454;2023-05-22T03:55:36;97884.03;;;14.84;80.18
62789;BME280;66401;42.016;21.454;2023-05-22T03:58:02;97887.81;;;14.88;79.19
62789;BME280;66401;42.016;21.454;2023-05-22T04:00:28;97896.25;;;15.02;79.45
62789;BME280;66401;42.016;21.454;2023-05-22T04:02:53;97884.38;;;14.99;79.43
62789;BME280;66401;42.016;21.454;2023-05-22T04:05:23;97892.81;;;15.01;78.69
62789;BME280;66401;42.016;21.454;2023-05-22T04:07:48;97894.19;;;15.15;79.01
62789;BME280;66401;42.016;21.454;2023-05-22T04:10:14;97894.84;;;15.23;77.69
62789;BME280;66401;42.016;21.454;2023-05-22T04:12:39;97900.22;;;15.28;77.29
62789;BME280;66401;42.016;21.454;2023-05-22T04:15:05;97906.03;;;15.30;78.04
62789;BME280;66401;42.016;21.454;2023-05-22T04:17:32;97890.19;;;15.13;79.08
62789;BME280;66401;42.016;21.454;2023-05-22T04:19:58;97896.47;;;15.12;80.25
62789;BME280;66401;42.016;21.454;2023-05-22T04:22:25;97890.75;;;15.27;78.51
62789;BME280;66401;42.016;21.454;2023-05-22T04:24:51;97899.06;;;15.35;78.17
62789;BME280;66401;42.016;21.454;2023-05-22T04:27:17;97896.91;;;15.21;77.74
62789;BME280;66401;42.016;21.454;2023-05-22T04:29:46;97903.38;;;15.41;77.54
62789;BME280;66401;42.016;21.454;2023-05-22T04:32:12;97903.16;;;15.43;77.14
62789;BME280;66401;42.016;21.454;2023-05-22T04:34:47;97900.50;;;15.55;77.56
62789;BME280;66401;42.016;21.454;2023-05-22T04:37:12;97891.38;;;15.57;76.41
62789;BME280;66401;42.016;21.454;2023-05-22T04:39:39;97905.41;;;15.63;77.08
62789;BME280;66401;42.016;21.454;2023-05-22T04:42:05;97910.78;;;15.56;75.81
62789;BME280;66401;42.016;21.454;2023-05-22T04:44:31;97912.72;;;15.61;76.55
62789;BME280;66401;42.016;21.454;2023-05-22T04:47:00;97906.69;;;15.60;75.51
62789;BME280;66401;42.016;21.454;2023-05-22T04:49:26;97907.03;;;15.64;76.64
62789;BME280;66401;42.016;21.454;2023-05-22T04:51:56;97906.88;;;15.70;76.49
62789;BME280;66401;42.016;21.454;2023-05-22T04:54:22;97910.91;;;15.50;77.29
62789;BME280;66401;42.016;21.454;2023-05-22T04:56:48;97898.09;;;15.53;76.34
62789;BME280;66401;42.016;21.454;2023-05-22T04:59:16;97917.31;;;15.30;79.00
62789;BME280;66401;42.016;21.454;2023-05-22T05:01:41;97909.69;;;15.29;78.98
62789;BME280;66401;42.016;21.454;2023-05-22T05:04:10;97904.28;;;15.47;77.88
62789;BME280;66401;42.016;21.454;2023-05-22T05:06:36;97918.53;;;15.51;78.59
62789;BME280;66401;42.016;21.454;2023-05-22T05:09:04;97917.38;;;15.70;77.29
62789;BME280;66401;42.016;21.454;2023-05-22T05:11:30;97919.50;;;15.85;78.04
62789;BME280;66401;42.016;21.454;2023-05-22T05:13:55;97917.56;;;15.92;76.56
62789;BME280;66401;42.016;21.454;2023-05-22T05:16:22;97928.16;;;15.97;77.27
62789;BME280;66401;42.016;21.454;2023-05-22T05:18:49;97918.63;;;16.08;76.33
62789;BME280;66401;42.016;21.454;2023-05-22T05:21:15;97927.41;;;16.30;75.65
62789;BME280;66401;42.016;21.454;2023-05-22T05:23:41;97928.25;;;16.48;73.36
62789;BME280;66401;42.016;21.454;2023-05-22T05:26:06;97929.38;;;16.52;74.14
62789;BME280;66401;42.016;21.454;2023-05-22T05:28:32;97927.47;;;16.64;72.42
62789;BME280;66401;42.016;21.454;2023-05-22T05:30:57;97924.78;;;16.76;71.62
62789;BME280;66401;42.016;21.454;2023-05-22T05:33:23;97925.13;;;16.79;70.59
62789;BME280;66401;42.016;21.454;2023-05-22T05:35:48;97915.44;;;16.85;70.04
62789;BME280;66401;42.016;21.454;2023-05-22T05:38:17;97932.81;;;17.03;69.51
62789;BME280;66401;42.016;21.454;2023-05-22T05:40:43;97921.09;;;16.94;68.81
62789;BME280;66401;42.016;21.454;2023-05-22T05:43:09;97935.75;;;17.06;67.68
62789;BME280;66401;42.016;21.454;2023-05-22T05:45:34;97942.31;;;17.04;67.74
62789;BME280;66401;42.016;21.454;2023-05-22T05:48:00;97935.59;;;17.13;68.26
62789;BME280;66401;42.016;21.454;2023-05-22T05:50:25;97940.69;;;17.20;68.53
62789;BME280;66401;42.016;21.454;2023-05-22T05:52:51;97931.63;;;17.10;68.84
62789;BME280;66401;42.016;21.454;2023-05-22T05:55:16;97938.22;;;17.13;68.48
62789;BME280;66401;42.016;21.454;2023-05-22T05:57:42;97938.78;;;17.15;68.30
62789;BME280;66401;42.016;21.454;2023-05-22T06:00:08;97934.78;;;17.29;68.48
62789;BME280;66401;42.016;21.454;2023-05-22T06:02:36;97946.25;;;17.23;67.01
62789;BME280;66401;42.016;21.454;2023-05-22T06:05:02;97946.91;;;17.30;66.98
62789;BME280;66401;42.016;21.454;2023-05-22T06:07:30;97945.59;;;17.33;68.46
62789;BME280;66401;42.016;21.454;2023-05-22T06:09:56;97953.13;;;17.24;67.68
62789;BME280;66401;42.016;21.454;2023-05-22T06:12:22;97953.25;;;17.34;68.01
62789;BME280;66401;42.016;21.454;2023-05-22T06:14:48;97957.81;;;17.39;67.62
62789;BME280;66401;42.016;21.454;2023-05-22T06:17:13;97958.06;;;17.37;67.55
62789;BME280;66401;42.016;21.454;2023-05-22T06:19:39;97955.63;;;17.53;67.40
62789;BME280;66401;42.016;21.454;2023-05-22T06:22:05;97958.31;;;17.58;67.91
62789;BME280;66401;42.016;21.454;2023-05-22T06:24:30;97946.31;;;17.67;67.36
62789;BME280;66401;42.016;21.454;2023-05-22T06:26:57;97951.25;;;17.80;68.22
62789;BME280;66401;42.016;21.454;2023-05-22T06:29:23;97946.88;;;17.91;66.98
62789;BME280;66401;42.016;21.454;2023-05-22T06:31:48;97946.31;;;18.11;67.68
62789;BME280;66401;42.016;21.454;2023-05-22T06:34:16;97952.19;;;18.18;66.47
62789;BME280;66401;42.016;21.454;2023-05-22T06:36:43;97947.13;;;18.38;63.97
62789;BME280;66401;42.016;21.454;2023-05-22T06:39:10;97953.09;;;18.28;65.40
62789;BME280;66401;42.016;21.454;2023-05-22T06:41:36;97940.34;;;18.47;63.88
62789;BME280;66401;42.016;21.454;2023-05-22T06:44:01;97959.88;;;18.78;62.66
62789;BME280;66401;42.016;21.454;2023-05-22T06:46:27;97954.16;;;18.86;61.44
62789;BME280;66401;42.016;21.454;2023-05-22T06:48:52;97955.53;;;18.94;60.79
62789;BME280;66401;42.016;21.454;2023-05-22T06:51:19;97952.44;;;19.02;61.19
62789;BME280;66401;42.016;21.454;2023-05-22T06:53:45;97952.03;;;19.26;60.95
62789;BME280;66401;42.016;21.454;2023-05-22T06:56:10;97951.97;;;19.58;59.82
62789;BME280;66401;42.016;21.454;2023-05-22T06:58:37;97940.53;;;19.42;59.05
62789;BME280;66401;42.016;21.454;2023-05-22T07:01:03;97942.38;;;19.47;59.35
62789;BME280;66401;42.016;21.454;2023-05-22T07:03:28;97949.09;;;19.64;58.45
62789;BME280;66401;42.016;21.454;2023-05-22T07:05:54;97952.63;;;19.33;58.38
62789;BME280;66401;42.016;21.454;2023-05-22T07:08:22;97945.69;;;19.22;59.50
62789;BME280;66401;42.016;21.454;2023-05-22T07:10:47;97955.09;;;19.55;59.13
62789;BME280;66401;42.016;21.454;2023-05-22T07:13:13;97954.78;;;19.41;59.75
62789;BME280;66401;42.016;21.454;2023-05-22T07:15:38;97947.41;;;19.48;57.84
62789;BME280;66401;42.016;21.454;2023-05-22T07:18:04;97956.25;;;19.64;57.38
62789;BME280;66401;42.016;21.454;2023-05-22T07:20:29;97958.22;;;19.41;57.18
62789;BME280;66401;42.016;21.454;2023-05-22T07:22:55;97961.13;;;19.45;56.73
62789;BME280;66401;42.016;21.454;2023-05-22T07:25:22;97952.31;;;19.77;56.42
62789;BME280;66401;42.016;21.454;2023-05-22T07:27:54;97956.66;;;20.03;56.41
62789;BME280;66401;42.016;21.454;2023-05-22T07:30:22;97947.44;;;20.11;57.13
62789;BME280;66401;42.016;21.454;2023-05-22T07:32:48;97935.81;;;20.22;56.52
62789;BME280;66401;42.016;21.454;2023-05-22T07:35:13;97951.69;;;20.32;55.21
62789;BME280;66401;42.016;21.454;2023-05-22T07:37:39;97956.72;;;20.34;55.33
62789;BME280;66401;42.016;21.454;2023-05-22T07:40:06;97951.47;;;20.54;55.75
62789;BME280;66401;42.016;21.454;2023-05-22T07:42:32;97946.09;;;20.08;54.13
62789;BME280;66401;42.016;21.454;2023-05-22T07:44:59;97951.75;;;20.63;54.22
62789;BME280;66401;42.016;21.454;2023-05-22T07:47:24;97938.53;;;20.73;53.29
62789;BME280;66401;42.016;21.454;2023-05-22T07:49:50;97951.91;;;20.00;53.56
62789;BME280;66401;42.016;21.454;2023-05-22T07:52:15;97955.53;;;19.84;55.28
62789;BME280;66401;42.016;21.454;2023-05-22T07:54:40;97955.97;;;20.53;54.35
62789;BME280;66401;42.016;21.454;2023-05-22T07:57:06;97964.72;;;21.00;55.18
62789;BME280;66401;42.016;21.454;2023-05-22T07:59:32;97954.66;;;21.02;52.27
62789;BME280;66401;42.016;21.454;2023-05-22T08:01:58;97954.41;;;21.13;52.68
62789;BME280;66401;42.016;21.454;2023-05-22T08:04:24;97959.41;;;21.35;50.96
62789;BME280;66401;42.016;21.454;2023-05-22T08:06:50;97946.94;;;21.21;52.79
62789;BME280;66401;42.016;21.454;2023-05-22T08:09:15;97955.19;;;21.34;51.10
62789;BME280;66401;42.016;21.454;2023-05-22T08:11:41;97938.72;;;20.25;53.37
62789;BME280;66401;42.016;21.454;2023-05-22T08:14:07;97945.09;;;20.29;52.59
62789;BME280;66401;42.016;21.454;2023-05-22T08:16:33;97949.34;;;21.12;54.30
62789;BME280;66401;42.016;21.454;2023-05-22T08:18:58;97944.00;;;21.53;54.35
62789;BME280;66401;42.016;21.454;2023-05-22T08:21:24;97948.06;;;21.94;53.30
62789;BME280;66401;42.016;21.454;2023-05-22T08:23:49;97946.28;;;22.34;51.87
62789;BME280;66401;42.016;21.454;2023-05-22T08:26:15;97958.25;;;22.66;50.37
62789;BME280;66401;42.016;21.454;2023-05-22T08:28:40;97950.56;;;22.25;48.10
62789;BME280;66401;42.016;21.454;2023-05-22T08:31:11;97945.28;;;21.65;50.30
62789;BME280;66401;42.016;21.454;2023-05-22T08:33:38;97951.16;;;22.17;50.00
62789;BME280;66401;42.016;21.454;2023-05-22T08:36:04;97947.19;;;22.59;49.57
62789;BME280;66401;42.016;21.454;2023-05-22T08:38:30;97943.97;;;22.56;48.90
62789;BME280;66401;42.016;21.454;2023-05-22T08:40:56;97952.75;;;22.57;49.55
62789;BME280;66401;42.016;21.454;2023-05-22T08:43:22;97947.41;;;22.62;47.70
62789;BME280;66401;42.016;21.454;2023-05-22T08:46:05;97948.63;;;22.41;48.38
62789;BME280;66401;42.016;21.454;2023-05-22T08:48:33;97957.69;;;22.35;50.03
62789;BME280;66401;42.016;21.454;2023-05-22T08:51:03;97944.69;;;22.67;50.63
62789;BME280;66401;42.016;21.454;2023-05-22T08:53:35;97948.63;;;21.91;48.06
62789;BME280;66401;42.016;21.454;2023-05-22T08:56:05;97945.28;;;22.25;50.19
62789;BME280;66401;42.016;21.454;2023-05-22T08:58:35;97949.06;;;22.09;48.86
62789;BME280;66401;42.016;21.454;2023-05-22T09:01:01;97948.69;;;22.31;51.00
62789;BME280;66401;42.016;21.454;2023-05-22T09:03:28;97949.69;;;22.74;49.11
62789;BME280;66401;42.016;21.454;2023-05-22T09:05:57;97953.84;;;22.90;50.92
62789;BME280;66401;42.016;21.454;2023-05-22T09:08:24;97948.03;;;22.83;47.04
62789;BME280;66401;42.016;21.454;2023-05-22T09:10:50;97941.84;;;23.22;48.13
62789;BME280;66401;42.016;21.454;2023-05-22T09:13:25;97949.88;;;23.69;48.13
62789;BME280;66401;42.016;21.454;2023-05-22T09:15:52;97937.47;;;23.84;46.41
62789;BME280;66401;42.016;21.454;2023-05-22T09:18:17;97938.97;;;23.90;47.27
62789;BME280;66401;42.016;21.454;2023-05-22T09:20:43;97937.25;;;23.99;44.77
62789;BME280;66401;42.016;21.454;2023-05-22T09:23:13;97929.44;;;23.41;46.42
62789;BME280;66401;42.016;21.454;2023-05-22T09:25:40;97936.81;;;23.92;47.13
62789;BME280;66401;42.016;21.454;2023-05-22T09:28:07;97939.44;;;23.49;45.54
62789;BME280;66401;42.016;21.454;2023-05-22T09:30:35;97935.41;;;23.52;46.72
62789;BME280;66401;42.016;21.454;2023-05-22T09:33:02;97938.94;;;23.71;46.35
62789;BME280;66401;42.016;21.454;2023-05-22T09:35:30;97931.50;;;23.92;48.95
62789;BME280;66401;42.016;21.454;2023-05-22T09:37:57;97927.28;;;24.10;46.43
62789;BME280;66401;42.016;21.454;2023-05-22T09:40:22;97931.78;;;24.33;47.71
62789;BME280;66401;42.016;21.454;2023-05-22T09:42:48;97907.81;;;24.33;45.11
62789;BME280;66401;42.016;21.454;2023-05-22T09:45:18;97915.34;;;24.26;46.48
62789;BME280;66401;42.016;21.454;2023-05-22T09:47:48;97918.00;;;24.45;46.00
62789;BME280;66401;42.016;21.454;2023-05-22T09:50:15;97916.56;;;24.52;44.00
62789;BME280;66401;42.016;21.454;2023-05-22T09:52:43;97914.88;;;24.57;44.86
62789;BME280;66401;42.016;21.454;2023-05-22T09:55:09;97915.41;;;24.40;45.63
62789;BME280;66401;42.016;21.454;2023-05-22T09:57:44;97915.13;;;24.22;46.54
62789;BME280;66401;42.016;21.454;2023-05-22T10:00:12;97910.66;;;23.99;45.37
62789;BME280;66401;42.016;21.454;2023-05-22T10:02:45;97909.81;;;24.22;43.87
62789;BME280;66401;42.016;21.454;2023-05-22T10:05:11;97913.41;;;23.94;44.23
62789;BME280;66401;42.016;21.454;2023-05-22T10:07:49;97912.69;;;24.07;43.80
62789;BME280;66401;42.016;21.454;2023-05-22T10:10:24;97918.53;;;23.66;44.92
62789;BME280;66401;42.016;21.454;2023-05-22T10:12:55;97905.91;;;23.53;45.70
62789;BME280;66401;42.016;21.454;2023-05-22T10:15:21;97906.06;;;23.86;45.56
62789;BME280;66401;42.016;21.454;2023-05-22T10:17:48;97901.88;;;24.17;47.17
62789;BME280;66401;42.016;21.454;2023-05-22T10:20:15;97901.28;;;24.58;45.05
62789;BME280;66401;42.016;21.454;2023-05-22T10:22:41;97893.53;;;24.75;44.39
62789;BME280;66401;42.016;21.454;2023-05-22T10:25:07;97892.50;;;24.90;43.35
62789;BME280;66401;42.016;21.454;2023-05-22T10:27:33;97900.94;;;24.78;43.82
62789;BME280;66401;42.016;21.454;2023-05-22T10:30:09;97898.09;;;24.42;45.20
62789;BME280;66401;42.016;21.454;2023-05-22T10:32:56;97888.63;;;24.50;43.53
62789;BME280;66401;42.016;21.454;2023-05-22T10:35:35;97894.34;;;24.43;45.64
62789;BME280;66401;42.016;21.454;2023-05-22T10:40:32;97886.72;;;23.56;43.04
62789;BME280;66401;42.016;21.454;2023-05-22T10:43:01;97875.25;;;23.61;43.33
62789;BME280;66401;42.016;21.454;2023-05-22T10:45:29;97869.75;;;23.52;43.48
62789;BME280;66401;42.016;21.454;2023-05-22T10:48:02;97871.34;;;23.53;43.38
62789;BME280;66401;42.016;21.454;2023-05-22T10:50:28;97868.53;;;23.21;43.21
62789;BME280;66401;42.016;21.454;2023-05-22T10:55:46;97860.59;;;23.63;46.47
62789;BME280;66401;42.016;21.454;2023-05-22T10:58:12;97844.16;;;23.80;44.73
62789;BME280;66401;42.016;21.454;2023-05-22T11:00:37;97855.03;;;23.84;44.88
62789;BME280;66401;42.016;21.454;2023-05-22T11:03:03;97858.19;;;23.86;44.71
62789;BME280;66401;42.016;21.454;2023-05-22T11:05:32;97857.09;;;23.87;45.54
62789;BME280;66401;42.016;21.454;2023-05-22T11:08:11;97853.72;;;24.00;43.71
62789;BME280;66401;42.016;21.454;2023-05-22T11:11:10;97853.56;;;23.91;43.47
62789;BME280;66401;42.016;21.454;2023-05-22T11:13:37;97846.50;;;24.19;44.21
62789;BME280;66401;42.016;21.454;2023-05-22T11:16:07;97861.94;;;24.55;43.57
62789;BME280;66401;42.016;21.454;2023-05-22T11:18:33;97865.81;;;24.63;44.65
62789;BME280;66401;42.016;21.454;2023-05-22T11:20:58;97867.63;;;24.95;43.25
62789;BME280;66401;42.016;21.454;2023-05-22T11:23:25;97851.22;;;24.74;42.20
62789;BME280;66401;42.016;21.454;2023-05-22T11:25:50;97855.28;;;24.39;42.64
62789;BME280;66401;42.016;21.454;2023-05-22T11:28:16;97853.94;;;23.85;42.17
62789;BME280;66401;42.016;21.454;2023-05-22T11:30:42;97858.09;;;23.91;42.47
62789;BME280;66401;42.016;21.454;2023-05-22T11:33:08;97853.25;;;23.55;42.65
62789;BME280;66401;42.016;21.454;2023-05-22T11:35:34;97851.00;;;23.67;42.77
62789;BME280;66401;42.016;21.454;2023-05-22T11:38:03;97862.09;;;23.27;43.86
62789;BME280;66401;42.016;21.454;2023-05-22T11:40:28;97880.19;;;23.25;44.34
62789;BME280;66401;42.016;21.454;2023-05-22T11:42:54;97900.16;;;22.93;44.15
62789;BME280;66401;42.016;21.454;2023-05-22T11:45:20;97897.78;;;22.57;49.70
62789;BME280;66401;42.016;21.454;2023-05-22T11:47:46;97897.84;;;21.59;56.13
62789;BME280;66401;42.016;21.454;2023-05-22T11:50:13;97904.34;;;21.02;57.33
62789;BME280;66401;42.016;21.454;2023-05-22T11:52:40;97895.91;;;20.39;59.90
62789;BME280;66401;42.016;21.454;2023-05-22T11:55:07;97907.50;;;20.22;59.63
62789;BME280;66401;42.016;21.454;2023-05-22T11:57:33;97912.94;;;19.75;64.09
62789;BME280;66401;42.016;21.454;2023-05-22T12:00:00;97918.56;;;19.31;65.41
62789;BME280;66401;42.016;21.454;2023-05-22T12:02:25;97922.88;;;19.05;65.39
62789;BME280;66401;42.016;21.454;2023-05-22T12:04:54;97927.50;;;18.83;65.59
62789;BME280;66401;42.016;21.454;2023-05-22T12:07:21;97920.97;;;18.96;64.60
62789;BME280;66401;42.016;21.454;2023-05-22T12:09:47;97923.41;;;19.02;65.09
62789;BME280;66401;42.016;21.454;2023-05-22T12:12:14;97913.75;;;19.28;62.14
62789;BME280;66401;42.016;21.454;2023-05-22T12:14:43;97921.72;;;18.91;72.39
62789;BME280;66401;42.016;21.454;2023-05-22T12:17:11;97912.84;;;19.07;67.54
62789;BME280;66401;42.016;21.454;2023-05-22T12:19:39;97919.78;;;19.13;70.48
62789;BME280;66401;42.016;21.454;2023-05-22T12:22:05;97917.94;;;18.77;70.96
62789;BME280;66401;42.016;21.454;2023-05-22T12:24:57;97930.06;;;18.73;71.57
62789;BME280;66401;42.016;21.454;2023-05-22T12:27:22;97935.59;;;18.76;72.03
62789;BME280;66401;42.016;21.454;2023-05-22T12:29:48;97933.47;;;18.73;73.83
62789;BME280;66401;42.016;21.454;2023-05-22T12:32:13;97930.28;;;18.71;73.43
62789;BME280;66401;42.016;21.454;2023-05-22T12:34:44;97942.00;;;18.53;77.02
62789;BME280;66401;42.016;21.454;2023-05-22T12:37:22;97952.38;;;18.92;74.16
62789;BME280;66401;42.016;21.454;2023-05-22T12:39:54;97949.03;;;19.07;72.00
62789;BME280;66401;42.016;21.454;2023-05-22T12:42:20;97943.81;;;19.17;74.53
62789;BME280;66401;42.016;21.454;2023-05-22T12:44:45;97938.19;;;19.08;72.65
62789;BME280;66401;42.016;21.454;2023-05-22T12:47:11;97936.56;;;19.44;70.31
62789;BME280;66401;42.016;21.454;2023-05-22T12:49:36;97922.72;;;19.69;70.32
62789;BME280;66401;42.016;21.454;2023-05-22T12:52:02;97929.13;;;19.89;69.03
62789;BME280;66401;42.016;21.454;2023-05-22T12:54:27;97915.47;;;20.27;68.00
62789;BME280;66401;42.016;21.454;2023-05-22T12:56:53;97910.72;;;20.55;68.01
62789;BME280;66401;42.016;21.454;2023-05-22T12:59:18;97903.31;;;20.72;65.27
62789;BME280;66401;42.016;21.454;2023-05-22T13:01:44;97909.94;;;20.95;66.00
62789;BME280;66401;42.016;21.454;2023-05-22T13:04:09;97916.53;;;21.03;68.12
62789;BME280;66401;42.016;21.454;2023-05-22T13:06:35;97907.53;;;20.94;61.55